Etusivu
METAR-TAF:

METAR-TAF

Lentoasemat :

Gaylord Regional Airport (Otsego County Airport)

Gaylord, Michigan, Yhdysvallat

Leveyspiiri: 45-00-59N, Pituuspiiri: 084-41-20W, korkeus merenpinnasta: 404 m

Tämänhetkinen sää

Tämä raportti tehtiin 1 tunti ja 9 minuuttia sitten, kello 04.53 UTC
Tuuli 10 kn etelästä/kaakosta
Lämpötila 13°C
Kosteus 82%
Ilmanpaine 1014 hPa
Näkyvyys: 16.1 km
Hajonneita pilviä 6000 ft:n korkeudessa
Pilvistä 11000 ft:n korkeudessa

METAR: KGLR 250453Z AUTO 16010KT 10SM BKN060 OVC110 13/10 A2995 RMK AO2 RAE00B40E50 SLP142 P0000 T01280100 401720072

Aika: 02:02 (06:02 UTC)


TAF: puuttuu

Säähavainnot ja -ennusteet yli 4000 lentoasemalta (METAR- ja TAF-raportit).

Käytössä olevat sääasemat on merkitty karttaan keltaisilla ja punaisilla pisteillä.

Aseta hiiri pisteen päälle nähdäksesi sääaseman nimen.

Klikkaa sitten nähdäksesi säähavainnot ja -ennusteet.

Kartan vaihtaminen: klikkaa mustalla rastilla varustettuja vihreitä pisteitä, niin voit zoomata sisään; viivalla varustettua vihreää pistettä, niin voit zoomata ulos tai vihreitä nuolia, niin pääset viereisille kartoille.


METAR-TAF: